createdAt,value
2024-01-15T00:02:27.560Z,99329.66
2024-01-15T00:04:57.184Z,99338.72
2024-01-15T00:07:29.437Z,99329.28
2024-01-15T00:09:59.059Z,99334.44
2024-01-15T00:12:28.637Z,99345.25
2024-01-15T00:14:58.432Z,99353.25
2024-01-15T00:17:28.092Z,99371.94
2024-01-15T00:19:57.766Z,99374.69
2024-01-15T00:22:30.654Z,99381.63
2024-01-15T00:25:00.354Z,99357.34
2024-01-15T00:27:29.944Z,99359.50
2024-01-15T00:29:59.472Z,99348.75
2024-01-15T00:32:29.522Z,99341.94
2024-01-15T00:34:59.124Z,99336.00
2024-01-15T00:37:31.317Z,99342.44
2024-01-15T00:40:01.035Z,99326.56
2024-01-15T00:42:30.639Z,99306.97
2024-01-15T00:45:00.261Z,99299.44
2024-01-15T00:47:29.955Z,99301.91
2024-01-15T00:49:59.525Z,99300.31
2024-01-15T00:52:31.682Z,99270.50
2024-01-15T00:55:01.296Z,99274.38
2024-01-15T00:57:30.876Z,99278.56
2024-01-15T01:00:03.061Z,99249.91
2024-01-15T01:02:34.270Z,99243.97
2024-01-15T01:05:04.682Z,99235.09
2024-01-15T01:07:37.090Z,99234.25
2024-01-15T01:10:07.932Z,99230.81
2024-01-15T01:12:37.486Z,99217.34
2024-01-15T01:15:08.220Z,99192.22
2024-01-15T01:17:37.839Z,99191.22
2024-01-15T01:20:10.518Z,99189.84
2024-01-15T01:22:43.337Z,99179.13
2024-01-15T01:25:13.060Z,99163.56
2024-01-15T01:27:42.733Z,99259.84
2024-01-15T01:30:13.393Z,99181.09
2024-01-15T01:32:43.025Z,99207.22
2024-01-15T01:35:12.801Z,99185.03
2024-01-15T01:37:44.984Z,99161.91
2024-01-15T01:40:14.947Z,99135.22
2024-01-15T01:42:44.607Z,99145.72
2024-01-15T01:45:14.992Z,99146.75
2024-01-15T01:47:44.820Z,99163.22
2024-01-15T01:50:15.080Z,99167.59
2024-01-15T01:52:47.386Z,99175.47
2024-01-15T01:55:17.010Z,99183.19
2024-01-15T01:57:46.804Z,99194.28
2024-01-15T02:00:17.948Z,99208.59
2024-01-15T02:02:47.549Z,99223.91
2024-01-15T02:05:18.347Z,99232.59
2024-01-15T02:07:50.558Z,99240.72
2024-01-15T02:10:20.518Z,99244.19
2024-01-15T02:12:50.348Z,99233.47
2024-01-15T02:15:20.013Z,99247.09
2024-01-15T02:18:03.181Z,99244.56
2024-01-15T02:20:33.300Z,99240.88
2024-01-15T02:23:14.238Z,99242.72
2024-01-15T02:25:45.799Z,99240.19
2024-01-15T02:28:17.090Z,99236.00
2024-01-15T02:30:47.636Z,99227.25
2024-01-15T02:33:17.510Z,99219.38
2024-01-15T02:35:47.573Z,99218.31
2024-01-15T02:38:20.100Z,99206.97
2024-01-15T02:40:49.690Z,99218.84
2024-01-15T02:43:20.699Z,99213.97
2024-01-15T02:45:50.639Z,99194.66
2024-01-15T02:48:20.399Z,99194.06
2024-01-15T02:50:50.084Z,99183.91
2024-01-15T02:53:22.279Z,99190.47
2024-01-15T02:55:51.797Z,99200.63
2024-01-15T02:58:21.329Z,99207.16
2024-01-15T03:00:50.995Z,99211.25
2024-01-15T03:03:20.743Z,99215.16
2024-01-15T03:05:50.388Z,99202.69
2024-01-15T03:08:24.054Z,99207.06
2024-01-15T03:10:53.844Z,99199.81
2024-01-15T03:13:23.402Z,99195.81
2024-01-15T03:15:53.171Z,99192.47
2024-01-15T03:18:22.897Z,99199.28
2024-01-15T03:20:52.781Z,99195.81
2024-01-15T03:23:25.009Z,99184.28
2024-01-15T03:25:54.661Z,99196.16
2024-01-15T03:28:24.177Z,99194.44
2024-01-15T03:30:53.968Z,99200.72
2024-01-15T03:33:23.728Z,99191.94
2024-01-15T03:35:53.400Z,99188.03
2024-01-15T03:38:26.808Z,99176.03
2024-01-15T03:40:56.418Z,99178.16
2024-01-15T03:43:26.020Z,99166.56
2024-01-15T03:45:55.657Z,99159.19
2024-01-15T03:48:25.353Z,99151.03
2024-01-15T03:50:54.962Z,99142.56
2024-01-15T03:53:27.253Z,99131.44
2024-01-15T03:55:56.785Z,99130.75
2024-01-15T03:58:26.435Z,99125.97
2024-01-15T04:00:56.091Z,99119.81
2024-01-15T04:03:25.854Z,99100.50
2024-01-15T04:05:55.577Z,99084.31
2024-01-15T04:08:27.759Z,99075.06
2024-01-15T04:10:57.276Z,99065.34
2024-01-15T04:13:26.986Z,99041.88
2024-01-15T04:15:56.650Z,99010.91
2024-01-15T04:18:27.222Z,98987.28
2024-01-15T04:20:56.800Z,98980.47
2024-01-15T04:23:28.995Z,98948.44
2024-01-15T04:25:58.514Z,98923.31
2024-01-15T04:28:28.085Z,98897.31
2024-01-15T04:30:57.715Z,98870.34
2024-01-15T04:33:27.518Z,98850.22
2024-01-15T04:35:57.237Z,98828.66
2024-01-15T04:38:29.359Z,98812.06
2024-01-15T04:40:58.890Z,98790.91
2024-01-15T04:43:28.473Z,98775.69
2024-01-15T04:45:58.133Z,98763.00
2024-01-15T04:48:27.874Z,98753.88
2024-01-15T04:50:57.458Z,98748.00
2024-01-15T04:53:29.621Z,98744.66
2024-01-15T04:55:59.244Z,98733.09
2024-01-15T04:58:28.945Z,98723.78
2024-01-15T05:00:58.637Z,98706.41
2024-01-15T05:03:28.419Z,98695.25
2024-01-15T05:05:58.158Z,98688.81
2024-01-15T05:08:30.435Z,98680.38
2024-01-15T05:10:59.960Z,98675.41
2024-01-15T05:13:29.561Z,98667.53
2024-01-15T05:15:59.269Z,98661.75
2024-01-15T05:18:29.093Z,98654.28
2024-01-15T05:20:58.857Z,98648.41
2024-01-15T05:23:31.044Z,98642.53
2024-01-15T05:26:00.643Z,98634.03
2024-01-15T05:28:30.771Z,98629.91
2024-01-15T05:31:00.534Z,98618.78
2024-01-15T05:33:30.216Z,98616.63
2024-01-15T05:36:00.239Z,98614.97
2024-01-15T05:38:32.395Z,98625.16
2024-01-15T05:41:01.965Z,98611.72
2024-01-15T05:43:31.701Z,98604.84
2024-01-15T05:46:01.389Z,98597.53
2024-01-15T05:48:31.106Z,98589.78
2024-01-15T05:51:00.932Z,98597.41
2024-01-15T05:53:33.117Z,98593.13
2024-01-15T05:56:02.692Z,98593.25
2024-01-15T05:58:32.251Z,98598.50
2024-01-15T06:01:01.901Z,98590.78
2024-01-15T06:03:31.830Z,98610.38
2024-01-15T06:06:01.543Z,98617.78
2024-01-15T06:08:33.758Z,98628.94
2024-01-15T06:11:04.376Z,98639.78
2024-01-15T06:13:33.916Z,98647.59
2024-01-15T06:16:05.548Z,98640.50
2024-01-15T06:18:33.831Z,98625.34
2024-01-15T06:21:03.441Z,98618.22
2024-01-15T06:23:35.586Z,98610.47
2024-01-15T06:26:05.475Z,98590.22
2024-01-15T06:28:35.025Z,98591.13
2024-01-15T06:31:04.653Z,98599.66
2024-01-15T06:33:34.584Z,98594.59
2024-01-15T06:36:04.204Z,98593.22
2024-01-15T06:38:36.634Z,98600.53
2024-01-15T06:41:06.329Z,98605.66
2024-01-15T06:43:36.126Z,98613.16
2024-01-15T06:46:07.803Z,98608.19
2024-01-15T06:48:38.474Z,98620.09
2024-01-15T06:51:08.539Z,98616.84
2024-01-15T06:53:40.765Z,98616.91
2024-01-15T06:56:10.366Z,98624.59
2024-01-15T06:58:40.032Z,98624.81
2024-01-15T07:01:09.928Z,98634.13
2024-01-15T07:03:39.801Z,98628.88
2024-01-15T07:06:09.669Z,98635.63
2024-01-15T07:08:42.072Z,98648.81
2024-01-15T07:11:11.816Z,98652.97
2024-01-15T07:13:41.898Z,98667.41
2024-01-15T07:16:11.416Z,98673.06
2024-01-15T07:18:41.062Z,98674.09
2024-01-15T07:21:10.824Z,98662.84
2024-01-15T07:23:43.739Z,98673.06
2024-01-15T07:26:13.334Z,98677.56
2024-01-15T07:28:42.913Z,98675.59
2024-01-15T07:31:12.964Z,98679.28
2024-01-15T07:33:43.177Z,98694.41
2024-01-15T07:36:12.851Z,98685.09
2024-01-15T07:38:44.996Z,98688.34
2024-01-15T07:41:14.532Z,98691.94
2024-01-15T07:43:44.236Z,98687.50
2024-01-15T07:46:16.502Z,98690.88
2024-01-15T07:48:46.365Z,98697.56
2024-01-15T07:51:16.206Z,98687.41
2024-01-15T07:53:48.369Z,98693.38
2024-01-15T07:56:18.002Z,98700.78
2024-01-15T07:58:47.643Z,98692.28
2024-01-15T08:01:17.442Z,98693.94
2024-01-15T08:03:47.165Z,98693.22
2024-01-15T08:06:14.390Z,98699.31
2024-01-15T08:08:43.964Z,98698.38
2024-01-15T08:11:16.147Z,98705.84
2024-01-15T08:13:45.789Z,98703.31
2024-01-15T08:16:15.442Z,98705.47
2024-01-15T08:18:45.824Z,98705.19
2024-01-15T08:21:15.494Z,98716.44
2024-01-15T08:23:45.124Z,98717.25
2024-01-15T08:26:17.277Z,98717.88
2024-01-15T08:28:46.830Z,98716.94
2024-01-15T08:31:16.904Z,98714.41
2024-01-15T08:33:47.371Z,98715.13
2024-01-15T08:36:17.406Z,98719.63
2024-01-15T08:38:47.074Z,98720.59
2024-01-15T08:41:19.232Z,98723.25
2024-01-15T08:43:48.845Z,98723.25
2024-01-15T08:46:18.432Z,98735.22
2024-01-15T08:48:48.016Z,98735.00
2024-01-15T08:51:17.662Z,98735.94
2024-01-15T08:53:47.220Z,98741.66
2024-01-15T08:56:19.402Z,98754.09
2024-01-15T08:58:49.777Z,98758.06
2024-01-15T09:01:20.407Z,98760.00
2024-01-15T09:03:50.161Z,98773.88
2024-01-15T09:06:19.827Z,98797.66
2024-01-15T09:08:49.503Z,98811.53
2024-01-15T09:11:21.782Z,98822.75
2024-01-15T09:13:51.738Z,98846.63
2024-01-15T09:16:21.358Z,98872.16
2024-01-15T09:18:51.063Z,98924.75
2024-01-15T09:21:20.943Z,99000.03
2024-01-15T09:23:50.585Z,99067.88
2024-01-15T09:26:22.742Z,99130.22
2024-01-15T09:28:52.433Z,99192.06
2024-01-15T09:31:22.759Z,99220.47
2024-01-15T09:33:57.448Z,99251.50
2024-01-15T09:36:27.206Z,99275.56
2024-01-15T09:38:56.756Z,99298.19
2024-01-15T09:41:29.425Z,99315.56
2024-01-15T09:43:58.983Z,99328.84
2024-01-15T09:46:28.554Z,99355.94
2024-01-15T09:48:58.184Z,99367.84
2024-01-15T09:51:28.303Z,99382.56
2024-01-15T09:53:58.954Z,99404.94
2024-01-15T09:56:31.352Z,99408.91
2024-01-15T09:59:01.098Z,99415.16
2024-01-15T10:01:31.116Z,99433.09
2024-01-15T10:04:00.886Z,99436.31
2024-01-15T10:06:31.693Z,99421.69
2024-01-15T10:09:02.102Z,99426.06
2024-01-15T10:11:34.497Z,99433.78
2024-01-15T10:14:04.182Z,99437.50
2024-01-15T10:16:34.285Z,99425.00
2024-01-15T10:19:04.469Z,99429.09
2024-01-15T10:21:36.095Z,99424.31
2024-01-15T10:24:06.926Z,99425.97
2024-01-15T10:26:39.055Z,99419.44
2024-01-15T10:29:08.600Z,99422.44
2024-01-15T10:31:38.216Z,99422.75
2024-01-15T10:34:17.144Z,99425.38
2024-01-15T10:36:53.830Z,99423.63
2024-01-15T10:39:23.670Z,99422.34
2024-01-15T10:41:55.846Z,99417.59
2024-01-15T10:44:25.488Z,99418.66
2024-01-15T10:46:55.633Z,99423.63
2024-01-15T10:49:31.494Z,99422.44
2024-01-15T10:52:03.055Z,99423.13
2024-01-15T10:54:33.526Z,99415.34
2024-01-15T10:57:06.655Z,99417.50
2024-01-15T10:59:36.834Z,99415.63
2024-01-15T11:02:06.922Z,99404.81
2024-01-15T11:04:36.841Z,99399.44
2024-01-15T11:07:07.200Z,99397.84
2024-01-15T11:09:38.396Z,99400.66
2024-01-15T11:12:15.225Z,99399.00
2024-01-15T11:14:46.000Z,99392.75
2024-01-15T11:17:16.109Z,99385.72
2024-01-15T11:19:49.588Z,99380.44
2024-01-15T11:22:49.602Z,99372.03
2024-01-15T11:25:20.303Z,99374.19
2024-01-15T11:27:55.039Z,99365.84
2024-01-15T11:30:29.003Z,99352.91
2024-01-15T11:32:59.029Z,99349.19
2024-01-15T11:35:54.597Z,99330.84
2024-01-15T11:38:33.265Z,99305.03
2024-01-15T11:41:03.556Z,99291.19
2024-01-15T11:43:36.016Z,99270.59
2024-01-15T11:46:06.477Z,99246.63
2024-01-15T11:48:48.724Z,99195.78
2024-01-15T11:51:21.275Z,99130.22
2024-01-15T11:53:52.709Z,99083.81
2024-01-15T11:56:25.171Z,99022.50
2024-01-15T11:58:57.281Z,98960.94
2024-01-15T12:01:27.025Z,98915.44
2024-01-15T12:03:56.662Z,98886.72
2024-01-15T12:06:26.495Z,98860.44
2024-01-15T12:09:09.834Z,98856.66
2024-01-15T12:11:40.613Z,98839.81
2024-01-15T12:14:13.150Z,98843.41
2024-01-15T12:16:42.726Z,98845.44
2024-01-15T12:19:12.449Z,98856.56
2024-01-15T12:21:43.250Z,98864.94
2024-01-15T12:24:12.830Z,98876.38
2024-01-15T12:26:42.730Z,98877.16
2024-01-15T12:29:14.933Z,98878.09
2024-01-15T12:31:44.616Z,98893.13
2024-01-15T12:34:15.068Z,98906.84
2024-01-15T12:36:45.780Z,98913.09
2024-01-15T12:39:16.933Z,98917.91
2024-01-15T12:41:46.780Z,98931.72
2024-01-15T12:44:19.006Z,98939.31
2024-01-15T12:46:48.708Z,98939.09
2024-01-15T12:49:18.674Z,98938.53
2024-01-15T12:51:56.306Z,98943.88
2024-01-15T12:54:27.480Z,98945.81
2024-01-15T12:56:57.033Z,98938.75
2024-01-15T12:59:29.674Z,98947.72
2024-01-15T13:01:59.451Z,98949.09
2024-01-15T13:04:29.488Z,98962.25
2024-01-15T13:06:59.290Z,98966.50
2024-01-15T13:09:28.934Z,98971.72
2024-01-15T13:11:58.574Z,98978.56
2024-01-15T13:14:30.813Z,98972.16
2024-01-15T13:17:00.698Z,98970.19
2024-01-15T13:19:30.369Z,98975.63
2024-01-15T13:22:01.386Z,98981.50
2024-01-15T13:24:31.006Z,98976.91
2024-01-15T13:27:01.357Z,98976.25
2024-01-15T13:29:33.504Z,98963.56
2024-01-15T13:32:04.116Z,98965.00
2024-01-15T13:34:33.739Z,98951.00
2024-01-15T13:37:04.051Z,98950.28
2024-01-15T13:39:34.597Z,98962.00
2024-01-15T13:42:04.218Z,98976.56
2024-01-15T13:44:37.092Z,98977.69
2024-01-15T13:47:07.301Z,98988.53
2024-01-15T13:49:37.229Z,98985.38
2024-01-15T13:52:07.834Z,98986.97
2024-01-15T13:54:45.738Z,98981.06
2024-01-15T13:57:20.701Z,98981.41
2024-01-15T13:59:53.313Z,98967.41
2024-01-15T14:02:24.992Z,98963.22
2024-01-15T14:04:55.503Z,98962.91
2024-01-15T14:07:25.174Z,98974.72
2024-01-15T14:09:54.803Z,98990.56
2024-01-15T14:12:24.399Z,99000.94
2024-01-15T14:14:56.761Z,99011.28
2024-01-15T14:17:26.404Z,99031.03
2024-01-15T14:19:57.524Z,99034.56
2024-01-15T14:22:27.188Z,99048.53
2024-01-15T14:24:56.778Z,99040.81
2024-01-15T14:27:26.589Z,99059.22
2024-01-15T14:29:58.904Z,99081.09
2024-01-15T14:32:28.595Z,99081.63
2024-01-15T14:34:58.364Z,99086.16
2024-01-15T14:37:28.024Z,99080.13
2024-01-15T14:39:57.590Z,99079.53
2024-01-15T14:42:27.783Z,99088.06
2024-01-15T14:45:00.080Z,99084.06
2024-01-15T14:47:29.772Z,99092.91
2024-01-15T14:50:00.631Z,99095.59
2024-01-15T14:52:30.199Z,99097.59
2024-01-15T14:54:59.769Z,99090.53
2024-01-15T14:57:29.425Z,99076.38
2024-01-15T15:00:01.578Z,99078.81
2024-01-15T15:02:33.036Z,99057.63
2024-01-15T15:05:03.166Z,99059.81
2024-01-15T15:07:32.974Z,99060.59
2024-01-15T15:10:02.649Z,99071.72
2024-01-15T15:12:32.320Z,99082.13
2024-01-15T15:15:09.131Z,99087.56
2024-01-15T15:17:40.935Z,99099.41
2024-01-15T15:20:11.815Z,99107.66
2024-01-15T15:22:41.978Z,99134.19
2024-01-15T15:25:13.489Z,99131.84
2024-01-15T15:27:44.294Z,99153.88
2024-01-15T15:30:17.204Z,99171.81
2024-01-15T15:32:46.828Z,99201.63
2024-01-15T15:35:16.645Z,99222.19
2024-01-15T15:37:46.236Z,99264.34
2024-01-15T15:40:15.794Z,99274.72
2024-01-15T15:42:45.333Z,99295.84
2024-01-15T15:45:18.015Z,99332.78
2024-01-15T15:47:47.705Z,99368.47
2024-01-15T15:50:17.924Z,99419.66
2024-01-15T15:52:47.540Z,99423.44
2024-01-15T15:55:17.197Z,99444.59
2024-01-15T15:57:46.823Z,99477.78
2024-01-15T16:00:19.598Z,99487.56
2024-01-15T16:02:49.275Z,99498.69
2024-01-15T16:05:18.954Z,99515.66
2024-01-15T16:07:49.103Z,99517.34
2024-01-15T16:10:19.152Z,99556.81
2024-01-15T16:12:49.010Z,99567.69
2024-01-15T16:15:24.603Z,99582.28
2024-01-15T16:23:17.915Z,99603.03
2024-01-15T16:23:32.594Z,99616.25
2024-01-15T16:24:06.609Z,99634.66
2024-01-15T16:26:24.696Z,99656.19
2024-01-15T16:28:55.075Z,99662.81
2024-01-15T16:31:27.779Z,99668.97
2024-01-15T16:34:02.159Z,99685.59
2024-01-15T16:36:35.186Z,99688.75
2024-01-15T16:39:05.134Z,99698.13
2024-01-15T16:41:35.289Z,99707.69
2024-01-15T16:44:04.941Z,99727.84
2024-01-15T16:46:37.123Z,99730.28
2024-01-15T16:49:11.259Z,99742.16
2024-01-15T16:51:40.897Z,99741.94
2024-01-15T16:54:10.891Z,99734.03
2024-01-15T16:56:40.472Z,99749.41
2024-01-15T16:59:10.115Z,99763.75
2024-01-15T17:01:42.283Z,99768.59
2024-01-15T17:04:11.950Z,99774.53
2024-01-15T17:06:41.533Z,99777.41
2024-01-15T17:09:11.371Z,99776.28
2024-01-15T17:11:41.013Z,99785.19
2024-01-15T17:14:11.009Z,99785.81
2024-01-15T17:16:43.190Z,99783.28
2024-01-15T17:19:12.797Z,99783.19
2024-01-15T17:21:43.754Z,99787.38
2024-01-15T17:24:14.329Z,99788.16
2024-01-15T17:26:44.000Z,99797.13
2024-01-15T17:29:13.598Z,99799.78
2024-01-15T17:31:45.787Z,99803.09
2024-01-15T17:34:15.353Z,99802.88
2024-01-15T17:36:44.896Z,99807.88
2024-01-15T17:39:14.900Z,99807.22
2024-01-15T17:41:44.483Z,99813.84
2024-01-15T17:44:14.194Z,99820.34
2024-01-15T17:46:46.497Z,99824.09
2024-01-15T17:49:16.048Z,99820.91
2024-01-15T17:51:45.616Z,99827.41
2024-01-15T17:54:15.241Z,99831.38
2024-01-15T17:56:44.772Z,99830.84
2024-01-15T17:59:14.799Z,99837.88
2024-01-15T18:01:48.206Z,99847.16
2024-01-15T18:04:20.703Z,99853.72
2024-01-15T18:06:51.609Z,99855.88
2024-01-15T18:09:21.148Z,99860.22
2024-01-15T18:11:50.693Z,99858.22
2024-01-15T18:14:17.672Z,99860.25
2024-01-15T18:16:52.242Z,99853.63
2024-01-15T18:19:21.858Z,99848.91
2024-01-15T18:21:51.408Z,99848.03
2024-01-15T18:24:20.967Z,99827.44
2024-01-15T18:26:51.964Z,99826.97
2024-01-15T18:29:23.342Z,99808.47
2024-01-15T18:31:55.586Z,99790.19
2024-01-15T18:34:25.256Z,99766.41
2024-01-15T18:36:55.306Z,99746.13
2024-01-15T18:39:24.884Z,99731.59
2024-01-15T18:41:54.572Z,99713.44
2024-01-15T18:44:24.833Z,99704.28
2024-01-15T18:46:57.152Z,99701.66
2024-01-15T18:49:26.839Z,99688.66
2024-01-15T18:51:57.968Z,99670.63
2024-01-15T18:54:28.714Z,99641.34
2024-01-15T18:56:58.281Z,99628.38
2024-01-15T18:59:27.936Z,99604.59
2024-01-15T19:02:00.207Z,99584.03
2024-01-15T19:04:29.956Z,99581.00
2024-01-15T19:06:59.539Z,99559.81
2024-01-15T19:09:29.324Z,99535.47
2024-01-15T19:11:58.944Z,99511.97
2024-01-15T19:14:28.647Z,99500.28
2024-01-15T19:17:02.943Z,99485.56
2024-01-15T19:19:36.110Z,99477.88
2024-01-15T19:22:05.757Z,99493.66
2024-01-15T19:24:35.400Z,99506.56
2024-01-15T19:27:06.719Z,99518.44
2024-01-15T19:29:36.552Z,99530.09
2024-01-15T19:32:09.272Z,99547.16
2024-01-15T19:34:39.218Z,99561.47
2024-01-15T19:37:08.864Z,99581.72
2024-01-15T19:39:38.379Z,99605.16
2024-01-15T19:42:08.555Z,99632.13
2024-01-15T19:44:38.812Z,99635.09
2024-01-15T19:47:11.000Z,99672.50
2024-01-15T19:49:44.654Z,99683.81
2024-01-15T19:52:14.217Z,99699.66
2024-01-15T19:54:43.769Z,99712.75
2024-01-15T19:57:13.288Z,99732.91
2024-01-15T19:59:42.855Z,99757.47
2024-01-15T20:02:15.082Z,99778.03
2024-01-15T20:04:44.685Z,99802.91
2024-01-15T20:07:14.332Z,99848.25
2024-01-15T20:09:44.011Z,99875.53
2024-01-15T20:12:13.601Z,99873.09
2024-01-15T20:14:43.187Z,99869.25
2024-01-15T20:17:15.348Z,99846.81
2024-01-15T20:19:45.044Z,99843.47
2024-01-15T20:22:14.827Z,99854.81
2024-01-15T20:24:44.425Z,99838.50
2024-01-15T20:27:14.079Z,99835.91
2024-01-15T20:29:43.708Z,99814.97
2024-01-15T20:32:19.422Z,99795.16
2024-01-15T20:34:49.029Z,99780.56
2024-01-15T20:37:18.808Z,99760.47
2024-01-15T20:39:48.369Z,99741.22
2024-01-15T20:42:17.938Z,99731.56
2024-01-15T20:44:50.583Z,99716.84
2024-01-15T20:47:23.127Z,99702.56
2024-01-15T20:49:52.707Z,99678.75
2024-01-15T20:52:25.425Z,99657.22
2024-01-15T20:54:55.395Z,99633.00
2024-01-15T20:57:24.937Z,99633.00
2024-01-15T20:59:54.540Z,99640.03
2024-01-15T21:02:26.801Z,99620.00
2024-01-15T21:04:56.390Z,99612.31
2024-01-15T21:07:27.212Z,99603.50
2024-01-15T21:09:58.222Z,99591.84
2024-01-15T21:12:27.801Z,99585.44
2024-01-15T21:14:57.363Z,99561.72
2024-01-15T21:17:29.602Z,99552.03
2024-01-15T21:19:59.560Z,99551.47
2024-01-15T21:22:29.958Z,99557.63
2024-01-15T21:24:59.537Z,99533.09
2024-01-15T21:27:29.135Z,99516.81
2024-01-15T21:29:58.685Z,99514.97
2024-01-15T21:32:31.041Z,99511.78
2024-01-15T21:35:00.743Z,99509.13
2024-01-15T21:37:30.667Z,99492.63
2024-01-15T21:40:00.245Z,99485.63
2024-01-15T21:42:29.832Z,99488.47
2024-01-15T21:44:59.402Z,99492.22
2024-01-15T21:47:31.664Z,99489.78
2024-01-15T21:50:01.376Z,99491.88
2024-01-15T21:52:30.926Z,99499.47
2024-01-15T21:55:00.496Z,99497.28
2024-01-15T21:57:30.417Z,99503.44
2024-01-15T22:00:01.664Z,99508.38
2024-01-15T22:02:37.176Z,99504.53
2024-01-15T22:05:07.970Z,99511.56
2024-01-15T22:07:37.553Z,99509.81
2024-01-15T22:10:09.100Z,99514.09
2024-01-15T22:12:38.769Z,99520.72
2024-01-15T22:15:09.524Z,99526.88
2024-01-15T22:17:41.821Z,99531.81
2024-01-15T22:20:13.553Z,99535.78
2024-01-15T22:22:43.305Z,99538.41
2024-01-15T22:25:12.843Z,99547.63
2024-01-15T22:27:42.419Z,99539.94
2024-01-15T22:30:12.234Z,99548.97
2024-01-15T22:32:44.704Z,99549.81
2024-01-15T22:35:14.772Z,99552.25
2024-01-15T22:37:44.528Z,99565.53
2024-01-15T22:40:17.035Z,99574.34
2024-01-15T22:42:46.579Z,99568.72
2024-01-15T22:45:17.528Z,99577.44
2024-01-15T22:47:50.308Z,99595.34
2024-01-15T22:50:20.409Z,99605.34
2024-01-15T22:52:50.026Z,99615.13
2024-01-15T22:55:19.568Z,99621.47
2024-01-15T22:57:49.158Z,99626.50
2024-01-15T23:00:20.273Z,99623.88
2024-01-15T23:02:53.261Z,99629.16
2024-01-15T23:05:22.999Z,99629.38
2024-01-15T23:07:52.972Z,99621.91
2024-01-15T23:10:22.724Z,99625.44
2024-01-15T23:12:52.260Z,99638.41
2024-01-15T23:15:21.924Z,99639.88
2024-01-15T23:17:54.316Z,99635.13
2024-01-15T23:20:24.139Z,99633.34
2024-01-15T23:22:53.689Z,99629.81
2024-01-15T23:25:23.238Z,99633.00
2024-01-15T23:27:52.809Z,99634.63
2024-01-15T23:30:22.475Z,99640.56
2024-01-15T23:32:54.754Z,99651.22
2024-01-15T23:35:24.437Z,99658.31
2024-01-15T23:37:54.017Z,99668.94
2024-01-15T23:40:23.562Z,99670.13
2024-01-15T23:42:53.147Z,99666.84
2024-01-15T23:45:22.720Z,99665.19
2024-01-15T23:47:55.007Z,99667.81
2024-01-15T23:50:24.731Z,99677.56
2024-01-15T23:52:54.307Z,99676.44
2024-01-15T23:55:23.896Z,99680.91
2024-01-15T23:57:53.466Z,99673.94
